Powranna, Tasmania

6:48 AM AEST on July 27, 2016 (GMT +1000)
8 Drummond Crescent | | Change Station

Elev 545 ft 41.58 °S, 147.17 °E | Updated 3 minutes ago

Scattered Clouds
Scattered Clouds
40.3 °F
Feels Like 40 °F
N
2.0
Wind Variable Wind from SSE
Gusts 6.0 mph

Today
High -- | Low -- °F
--% Chance of Precip.
Yesterday
High -- | Low -- °F
Precip. -- in
Pressure 29.56 in
Visibility 6.2 miles
Clouds Scattered Clouds 3300 ft
Scattered Clouds 5800 ft
Scattered Clouds 6600 ft
Windchill 40 °F
Dew Point 38 °F
Humidity 92%
Rainfall 0.26 in
Snow Depth Not available.
7:24 AM 5:10 PM
Waning Gibbous, 51% visible
METAR YMLT 262030Z AUTO 21006KT 9999 // SCT033 SCT058 SCT066 04/03 Q1001
Pressure 29.56 in
Visibility 6.2 miles
Clouds Scattered Clouds 3300 ft
Scattered Clouds 5800 ft
Scattered Clouds 6600 ft
Windchill 40 °F
Dew Point 38 °F
Humidity 92%
Rainfall 0.26 in
Snow Depth Not available.
7:24 AM 5:10 PM
Waning Gibbous, 51% visible
METAR YMLT 262030Z AUTO 21006KT 9999 // SCT033 SCT058 SCT066 04/03 Q1001

10-Day Weather Forecast

No radar image for this location.
×

Almanac

Astronomy

Jul. 27, 2016 Rise Set
Actual Time
Civil Twilight
Nautical Twilight
Astronomical Twilight
Moon
Length of Visible Light
Length of Day
Tomorrow will be .
, % of the Moon is Illuminated

Today's Extremes

Country Highs Country Lows

Community

WunderPhotos

Upload Photos

1,927,678 photos uploaded!

WunderBlog® & News

Nearby

Air Quality

  Air Quality AQ Index Pollutant
Not available.

Snow Depth

Station Depth Elevation

Earthquake Activity

City Distance Mag. Time & Date
Minimum magnitude displayed is 2.5.

Coastal Water Temperatures

Place Temperature

Stations

Nearby Weather Stations

Station Location Temp. Windchill Dew Point Humidity Wind Precip. Elev Updated Type